sensor_id;sensor_type;location;lat;lon;timestamp;P1;durP1;ratioP1;P2;durP2;ratioP2
71856;SDS011;63344;46.980;28.882;2023-05-16T00:02:26;7.10;;;4.30;;
71856;SDS011;63344;46.980;28.882;2023-05-16T00:04:54;7.03;;;4.00;;
71856;SDS011;63344;46.980;28.882;2023-05-16T00:07:21;5.90;;;3.78;;
71856;SDS011;63344;46.980;28.882;2023-05-16T00:09:49;6.68;;;4.18;;
71856;SDS011;63344;46.980;28.882;2023-05-16T00:12:16;6.03;;;3.80;;
71856;SDS011;63344;46.980;28.882;2023-05-16T00:14:43;5.78;;;3.97;;
71856;SDS011;63344;46.980;28.882;2023-05-16T00:17:11;5.57;;;3.72;;
71856;SDS011;63344;46.980;28.882;2023-05-16T00:19:38;4.57;;;3.83;;
71856;SDS011;63344;46.980;28.882;2023-05-16T00:22:06;5.65;;;3.70;;
71856;SDS011;63344;46.980;28.882;2023-05-16T00:24:33;5.38;;;3.70;;
71856;SDS011;63344;46.980;28.882;2023-05-16T00:27:00;7.63;;;3.97;;
71856;SDS011;63344;46.980;28.882;2023-05-16T00:29:30;5.32;;;3.85;;
71856;SDS011;63344;46.980;28.882;2023-05-16T00:31:57;5.10;;;3.42;;
71856;SDS011;63344;46.980;28.882;2023-05-16T00:34:24;6.05;;;3.90;;
71856;SDS011;63344;46.980;28.882;2023-05-16T00:36:52;6.38;;;3.60;;
71856;SDS011;63344;46.980;28.882;2023-05-16T00:39:20;6.07;;;3.72;;
71856;SDS011;63344;46.980;28.882;2023-05-16T00:41:47;5.50;;;3.47;;
71856;SDS011;63344;46.980;28.882;2023-05-16T00:44:14;6.80;;;3.75;;
71856;SDS011;63344;46.980;28.882;2023-05-16T00:46:41;6.45;;;3.83;;
71856;SDS011;63344;46.980;28.882;2023-05-16T00:49:34;8.40;;;4.35;;
71856;SDS011;63344;46.980;28.882;2023-05-16T00:52:04;6.70;;;3.90;;
71856;SDS011;63344;46.980;28.882;2023-05-16T00:54:32;5.85;;;3.65;;
71856;SDS011;63344;46.980;28.882;2023-05-16T00:57:00;7.13;;;3.50;;
71856;SDS011;63344;46.980;28.882;2023-05-16T00:59:27;6.18;;;4.15;;
71856;SDS011;63344;46.980;28.882;2023-05-16T01:01:56;6.03;;;3.15;;
71856;SDS011;63344;46.980;28.882;2023-05-16T01:04:23;5.65;;;4.05;;
71856;SDS011;63344;46.980;28.882;2023-05-16T01:06:51;8.32;;;3.80;;
71856;SDS011;63344;46.980;28.882;2023-05-16T01:09:19;7.93;;;3.97;;
71856;SDS011;63344;46.980;28.882;2023-05-16T01:11:55;7.65;;;3.75;;
71856;SDS011;63344;46.980;28.882;2023-05-16T01:20:17;4.28;;;3.35;;
71856;SDS011;63344;46.980;28.882;2023-05-16T01:28:27;3.50;;;2.60;;
71856;SDS011;63344;46.980;28.882;2023-05-16T01:30:54;5.60;;;3.20;;
71856;SDS011;63344;46.980;28.882;2023-05-16T01:33:22;8.20;;;4.50;;
71856;SDS011;63344;46.980;28.882;2023-05-16T01:35:54;6.75;;;3.95;;
71856;SDS011;63344;46.980;28.882;2023-05-16T01:38:38;7.13;;;4.25;;
71856;SDS011;63344;46.980;28.882;2023-05-16T01:43:43;5.93;;;3.60;;
71856;SDS011;63344;46.980;28.882;2023-05-16T01:46:17;6.97;;;4.22;;
71856;SDS011;63344;46.980;28.882;2023-05-16T01:48:57;5.47;;;3.95;;
71856;SDS011;63344;46.980;28.882;2023-05-16T01:51:44;7.50;;;3.75;;
71856;SDS011;63344;46.980;28.882;2023-05-16T01:54:18;8.75;;;3.70;;
71856;SDS011;63344;46.980;28.882;2023-05-16T01:56:51;5.43;;;4.25;;
71856;SDS011;63344;46.980;28.882;2023-05-16T01:59:23;5.90;;;3.78;;
71856;SDS011;63344;46.980;28.882;2023-05-16T02:01:56;8.27;;;4.30;;
71856;SDS011;63344;46.980;28.882;2023-05-16T02:04:23;8.80;;;5.03;;
71856;SDS011;63344;46.980;28.882;2023-05-16T02:07:06;5.13;;;3.97;;
71856;SDS011;63344;46.980;28.882;2023-05-16T02:09:33;5.47;;;4.43;;
71856;SDS011;63344;46.980;28.882;2023-05-16T02:12:01;7.63;;;4.38;;
71856;SDS011;63344;46.980;28.882;2023-05-16T02:14:28;6.35;;;4.10;;
71856;SDS011;63344;46.980;28.882;2023-05-16T02:16:56;7.30;;;4.90;;
71856;SDS011;63344;46.980;28.882;2023-05-16T02:19:23;7.18;;;4.47;;
71856;SDS011;63344;46.980;28.882;2023-05-16T02:21:50;9.32;;;4.70;;
71856;SDS011;63344;46.980;28.882;2023-05-16T02:24:18;10.85;;;5.10;;
71856;SDS011;63344;46.980;28.882;2023-05-16T02:26:45;7.07;;;4.80;;
71856;SDS011;63344;46.980;28.882;2023-05-16T02:29:13;6.95;;;4.80;;
71856;SDS011;63344;46.980;28.882;2023-05-16T02:31:41;11.52;;;5.13;;
71856;SDS011;63344;46.980;28.882;2023-05-16T02:34:10;8.35;;;4.20;;
71856;SDS011;63344;46.980;28.882;2023-05-16T02:36:37;7.60;;;4.65;;
71856;SDS011;63344;46.980;28.882;2023-05-16T02:39:05;7.68;;;4.55;;
71856;SDS011;63344;46.980;28.882;2023-05-16T02:41:33;9.15;;;4.65;;
71856;SDS011;63344;46.980;28.882;2023-05-16T02:44:00;7.10;;;4.63;;
71856;SDS011;63344;46.980;28.882;2023-05-16T02:46:28;7.93;;;4.43;;
71856;SDS011;63344;46.980;28.882;2023-05-16T02:48:57;7.63;;;4.65;;
71856;SDS011;63344;46.980;28.882;2023-05-16T02:51:26;7.90;;;4.20;;
71856;SDS011;63344;46.980;28.882;2023-05-16T02:53:54;5.65;;;3.70;;
71856;SDS011;63344;46.980;28.882;2023-05-16T02:56:28;8.23;;;4.53;;
71856;SDS011;63344;46.980;28.882;2023-05-16T02:58:55;7.03;;;4.68;;
71856;SDS011;63344;46.980;28.882;2023-05-16T03:01:22;9.57;;;4.80;;
71856;SDS011;63344;46.980;28.882;2023-05-16T03:03:50;5.55;;;3.55;;
71856;SDS011;63344;46.980;28.882;2023-05-16T03:06:17;8.20;;;4.35;;
71856;SDS011;63344;46.980;28.882;2023-05-16T03:08:45;8.38;;;4.72;;
71856;SDS011;63344;46.980;28.882;2023-05-16T03:11:14;7.13;;;4.90;;
71856;SDS011;63344;46.980;28.882;2023-05-16T03:13:45;9.27;;;5.50;;
71856;SDS011;63344;46.980;28.882;2023-05-16T03:16:12;7.95;;;4.82;;
71856;SDS011;63344;46.980;28.882;2023-05-16T03:18:40;10.48;;;4.90;;
71856;SDS011;63344;46.980;28.882;2023-05-16T03:21:08;10.50;;;5.20;;
71856;SDS011;63344;46.980;28.882;2023-05-16T03:23:36;7.65;;;5.15;;
71856;SDS011;63344;46.980;28.882;2023-05-16T03:26:17;6.85;;;4.53;;
71856;SDS011;63344;46.980;28.882;2023-05-16T03:28:45;10.25;;;5.38;;
71856;SDS011;63344;46.980;28.882;2023-05-16T03:31:12;7.35;;;4.90;;
71856;SDS011;63344;46.980;28.882;2023-05-16T03:33:40;10.02;;;5.13;;
71856;SDS011;63344;46.980;28.882;2023-05-16T03:36:07;7.53;;;4.47;;
71856;SDS011;63344;46.980;28.882;2023-05-16T03:38:35;8.85;;;5.30;;
71856;SDS011;63344;46.980;28.882;2023-05-16T03:41:03;8.00;;;4.97;;
71856;SDS011;63344;46.980;28.882;2023-05-16T03:43:30;7.90;;;5.53;;
71856;SDS011;63344;46.980;28.882;2023-05-16T03:45:59;10.65;;;5.85;;
71856;SDS011;63344;46.980;28.882;2023-05-16T03:48:27;7.07;;;5.43;;
71856;SDS011;63344;46.980;28.882;2023-05-16T03:50:55;6.82;;;5.10;;
71856;SDS011;63344;46.980;28.882;2023-05-16T03:53:23;8.27;;;4.72;;
71856;SDS011;63344;46.980;28.882;2023-05-16T03:55:50;10.00;;;4.97;;
71856;SDS011;63344;46.980;28.882;2023-05-16T03:58:24;8.13;;;4.60;;
71856;SDS011;63344;46.980;28.882;2023-05-16T04:00:55;7.47;;;4.40;;
71856;SDS011;63344;46.980;28.882;2023-05-16T04:03:36;5.47;;;4.20;;
71856;SDS011;63344;46.980;28.882;2023-05-16T04:06:10;7.82;;;5.00;;
71856;SDS011;63344;46.980;28.882;2023-05-16T04:08:38;5.57;;;4.28;;
71856;SDS011;63344;46.980;28.882;2023-05-16T04:11:15;10.15;;;4.78;;
71856;SDS011;63344;46.980;28.882;2023-05-16T04:13:45;7.38;;;4.45;;
71856;SDS011;63344;46.980;28.882;2023-05-16T04:16:12;6.32;;;4.40;;
71856;SDS011;63344;46.980;28.882;2023-05-16T04:18:40;8.60;;;4.68;;
71856;SDS011;63344;46.980;28.882;2023-05-16T04:21:07;6.43;;;4.28;;
71856;SDS011;63344;46.980;28.882;2023-05-16T04:23:36;7.57;;;4.53;;
71856;SDS011;63344;46.980;28.882;2023-05-16T04:26:04;5.47;;;3.83;;
71856;SDS011;63344;46.980;28.882;2023-05-16T04:28:31;7.38;;;4.22;;
71856;SDS011;63344;46.980;28.882;2023-05-16T04:30:58;5.95;;;4.15;;
71856;SDS011;63344;46.980;28.882;2023-05-16T04:33:26;9.30;;;4.55;;
71856;SDS011;63344;46.980;28.882;2023-05-16T04:35:54;8.23;;;4.63;;
71856;SDS011;63344;46.980;28.882;2023-05-16T04:38:24;6.43;;;4.25;;
71856;SDS011;63344;46.980;28.882;2023-05-16T04:40:51;5.93;;;3.97;;
71856;SDS011;63344;46.980;28.882;2023-05-16T04:43:20;7.05;;;4.50;;
71856;SDS011;63344;46.980;28.882;2023-05-16T04:45:47;10.98;;;4.57;;
71856;SDS011;63344;46.980;28.882;2023-05-16T04:48:16;9.10;;;4.93;;
71856;SDS011;63344;46.980;28.882;2023-05-16T04:51:11;7.68;;;4.00;;
71856;SDS011;63344;46.980;28.882;2023-05-16T04:53:39;6.13;;;3.90;;
71856;SDS011;63344;46.980;28.882;2023-05-16T04:56:06;5.63;;;3.85;;
71856;SDS011;63344;46.980;28.882;2023-05-16T04:58:40;6.47;;;4.40;;
71856;SDS011;63344;46.980;28.882;2023-05-16T05:01:08;5.25;;;4.50;;
71856;SDS011;63344;46.980;28.882;2023-05-16T05:03:36;10.45;;;4.25;;
71856;SDS011;63344;46.980;28.882;2023-05-16T05:06:03;6.43;;;3.70;;
71856;SDS011;63344;46.980;28.882;2023-05-16T05:08:31;7.57;;;3.75;;
71856;SDS011;63344;46.980;28.882;2023-05-16T05:10:58;6.75;;;4.47;;
71856;SDS011;63344;46.980;28.882;2023-05-16T05:13:26;5.72;;;3.42;;
71856;SDS011;63344;46.980;28.882;2023-05-16T05:15:53;6.13;;;4.28;;
71856;SDS011;63344;46.980;28.882;2023-05-16T05:18:21;7.15;;;3.55;;
71856;SDS011;63344;46.980;28.882;2023-05-16T05:20:52;9.45;;;4.03;;
71856;SDS011;63344;46.980;28.882;2023-05-16T05:23:20;6.15;;;3.88;;
71856;SDS011;63344;46.980;28.882;2023-05-16T05:25:47;8.15;;;4.03;;
71856;SDS011;63344;46.980;28.882;2023-05-16T05:28:15;7.82;;;4.25;;
71856;SDS011;63344;46.980;28.882;2023-05-16T05:30:42;4.82;;;3.90;;
71856;SDS011;63344;46.980;28.882;2023-05-16T05:33:25;8.40;;;3.55;;
71856;SDS011;63344;46.980;28.882;2023-05-16T05:35:56;7.70;;;3.60;;
71856;SDS011;63344;46.980;28.882;2023-05-16T05:38:23;4.47;;;3.53;;
71856;SDS011;63344;46.980;28.882;2023-05-16T05:40:51;6.07;;;4.03;;
71856;SDS011;63344;46.980;28.882;2023-05-16T05:43:18;5.30;;;3.05;;
71856;SDS011;63344;46.980;28.882;2023-05-16T05:45:46;8.77;;;3.25;;
71856;SDS011;63344;46.980;28.882;2023-05-16T05:48:13;5.88;;;3.65;;
71856;SDS011;63344;46.980;28.882;2023-05-16T05:51:17;9.90;;;3.40;;
71856;SDS011;63344;46.980;28.882;2023-05-16T05:53:59;4.00;;;2.95;;
71856;SDS011;63344;46.980;28.882;2023-05-16T05:56:27;7.35;;;3.42;;
71856;SDS011;63344;46.980;28.882;2023-05-16T05:58:55;7.38;;;3.00;;
71856;SDS011;63344;46.980;28.882;2023-05-16T06:01:22;5.90;;;3.45;;
71856;SDS011;63344;46.980;28.882;2023-05-16T06:03:50;7.15;;;3.30;;
71856;SDS011;63344;46.980;28.882;2023-05-16T06:06:18;5.35;;;3.00;;
71856;SDS011;63344;46.980;28.882;2023-05-16T06:08:45;4.82;;;3.25;;
71856;SDS011;63344;46.980;28.882;2023-05-16T06:11:12;5.63;;;2.95;;
71856;SDS011;63344;46.980;28.882;2023-05-16T06:13:40;4.15;;;2.60;;
71856;SDS011;63344;46.980;28.882;2023-05-16T06:16:07;4.78;;;2.83;;
71856;SDS011;63344;46.980;28.882;2023-05-16T06:18:35;5.18;;;3.05;;
71856;SDS011;63344;46.980;28.882;2023-05-16T06:21:02;5.22;;;2.75;;
71856;SDS011;63344;46.980;28.882;2023-05-16T06:23:31;4.35;;;2.42;;
71856;SDS011;63344;46.980;28.882;2023-05-16T06:25:58;4.88;;;3.03;;
71856;SDS011;63344;46.980;28.882;2023-05-16T06:28:26;4.65;;;2.65;;
71856;SDS011;63344;46.980;28.882;2023-05-16T06:30:53;4.90;;;3.10;;
71856;SDS011;63344;46.980;28.882;2023-05-16T06:33:21;3.33;;;2.55;;
71856;SDS011;63344;46.980;28.882;2023-05-16T06:35:50;3.95;;;2.63;;
71856;SDS011;63344;46.980;28.882;2023-05-16T06:38:19;4.78;;;2.53;;
71856;SDS011;63344;46.980;28.882;2023-05-16T06:40:46;3.67;;;2.33;;
71856;SDS011;63344;46.980;28.882;2023-05-16T06:43:14;5.13;;;2.33;;
71856;SDS011;63344;46.980;28.882;2023-05-16T06:45:45;3.45;;;2.22;;
71856;SDS011;63344;46.980;28.882;2023-05-16T06:48:13;4.35;;;2.70;;
71856;SDS011;63344;46.980;28.882;2023-05-16T06:50:46;4.35;;;2.78;;
71856;SDS011;63344;46.980;28.882;2023-05-16T06:53:18;3.22;;;2.50;;
71856;SDS011;63344;46.980;28.882;2023-05-16T06:55:45;3.95;;;2.28;;
71856;SDS011;63344;46.980;28.882;2023-05-16T07:00:42;10.70;;;2.40;;
71856;SDS011;63344;46.980;28.882;2023-05-16T07:03:10;7.15;;;2.80;;
71856;SDS011;63344;46.980;28.882;2023-05-16T07:05:37;5.97;;;2.63;;
71856;SDS011;63344;46.980;28.882;2023-05-16T07:08:05;3.47;;;2.33;;
71856;SDS011;63344;46.980;28.882;2023-05-16T07:10:35;4.72;;;3.20;;
71856;SDS011;63344;46.980;28.882;2023-05-16T07:13:03;4.03;;;2.75;;
71856;SDS011;63344;46.980;28.882;2023-05-16T07:15:30;5.15;;;3.20;;
71856;SDS011;63344;46.980;28.882;2023-05-16T07:17:58;3.22;;;2.63;;
71856;SDS011;63344;46.980;28.882;2023-05-16T07:20:25;5.70;;;2.85;;
71856;SDS011;63344;46.980;28.882;2023-05-16T07:22:53;3.60;;;2.80;;
71856;SDS011;63344;46.980;28.882;2023-05-16T07:25:23;5.07;;;2.70;;
71856;SDS011;63344;46.980;28.882;2023-05-16T07:28:12;4.13;;;3.03;;
71856;SDS011;63344;46.980;28.882;2023-05-16T07:30:39;4.97;;;2.90;;
71856;SDS011;63344;46.980;28.882;2023-05-16T07:33:10;4.72;;;2.90;;
71856;SDS011;63344;46.980;28.882;2023-05-16T07:35:37;3.72;;;2.67;;
71856;SDS011;63344;46.980;28.882;2023-05-16T07:38:05;3.85;;;2.35;;
71856;SDS011;63344;46.980;28.882;2023-05-16T07:40:33;5.25;;;2.50;;
71856;SDS011;63344;46.980;28.882;2023-05-16T07:43:00;4.00;;;2.40;;
71856;SDS011;63344;46.980;28.882;2023-05-16T07:45:28;3.08;;;2.40;;
71856;SDS011;63344;46.980;28.882;2023-05-16T07:47:56;2.88;;;2.30;;
71856;SDS011;63344;46.980;28.882;2023-05-16T07:50:25;4.78;;;2.47;;
71856;SDS011;63344;46.980;28.882;2023-05-16T07:52:53;3.33;;;2.33;;
71856;SDS011;63344;46.980;28.882;2023-05-16T07:55:20;3.28;;;2.38;;
71856;SDS011;63344;46.980;28.882;2023-05-16T07:57:51;4.57;;;2.22;;
71856;SDS011;63344;46.980;28.882;2023-05-16T08:00:19;4.22;;;2.25;;
71856;SDS011;63344;46.980;28.882;2023-05-16T08:02:48;4.28;;;1.92;;
71856;SDS011;63344;46.980;28.882;2023-05-16T08:05:17;3.88;;;2.22;;
71856;SDS011;63344;46.980;28.882;2023-05-16T08:07:45;4.10;;;2.40;;
71856;SDS011;63344;46.980;28.882;2023-05-16T08:10:12;4.10;;;2.35;;
71856;SDS011;63344;46.980;28.882;2023-05-16T08:12:40;3.25;;;2.35;;
71856;SDS011;63344;46.980;28.882;2023-05-16T08:17:36;8.57;;;2.15;;
71856;SDS011;63344;46.980;28.882;2023-05-16T08:20:04;4.82;;;2.05;;
71856;SDS011;63344;46.980;28.882;2023-05-16T08:22:32;5.70;;;2.28;;
71856;SDS011;63344;46.980;28.882;2023-05-16T08:25:00;4.00;;;1.90;;
71856;SDS011;63344;46.980;28.882;2023-05-16T08:27:27;2.97;;;2.13;;
71856;SDS011;63344;46.980;28.882;2023-05-16T08:29:55;5.85;;;2.25;;
71856;SDS011;63344;46.980;28.882;2023-05-16T08:32:23;2.67;;;1.92;;
71856;SDS011;63344;46.980;28.882;2023-05-16T08:34:51;3.40;;;2.10;;
71856;SDS011;63344;46.980;28.882;2023-05-16T08:39:47;3.10;;;1.88;;
71856;SDS011;63344;46.980;28.882;2023-05-16T08:42:14;4.20;;;2.20;;
71856;SDS011;63344;46.980;28.882;2023-05-16T08:44:42;7.13;;;2.13;;
71856;SDS011;63344;46.980;28.882;2023-05-16T08:47:19;3.13;;;1.85;;
71856;SDS011;63344;46.980;28.882;2023-05-16T08:49:50;2.47;;;1.90;;
71856;SDS011;63344;46.980;28.882;2023-05-16T08:52:23;2.72;;;2.10;;
71856;SDS011;63344;46.980;28.882;2023-05-16T08:54:58;3.10;;;1.85;;
71856;SDS011;63344;46.980;28.882;2023-05-16T08:57:31;3.05;;;1.90;;
71856;SDS011;63344;46.980;28.882;2023-05-16T09:00:02;3.75;;;1.95;;
71856;SDS011;63344;46.980;28.882;2023-05-16T09:02:41;5.50;;;2.38;;
71856;SDS011;63344;46.980;28.882;2023-05-16T09:05:13;4.18;;;1.92;;
71856;SDS011;63344;46.980;28.882;2023-05-16T09:07:42;3.10;;;1.92;;
71856;SDS011;63344;46.980;28.882;2023-05-16T09:10:10;3.30;;;2.30;;
71856;SDS011;63344;46.980;28.882;2023-05-16T09:12:41;3.50;;;2.03;;
71856;SDS011;63344;46.980;28.882;2023-05-16T09:15:09;3.92;;;2.15;;
71856;SDS011;63344;46.980;28.882;2023-05-16T09:17:38;2.88;;;2.00;;
71856;SDS011;63344;46.980;28.882;2023-05-16T09:22:37;3.67;;;1.92;;
71856;SDS011;63344;46.980;28.882;2023-05-16T09:25:05;3.60;;;2.10;;
71856;SDS011;63344;46.980;28.882;2023-05-16T09:27:39;2.60;;;1.73;;
71856;SDS011;63344;46.980;28.882;2023-05-16T09:30:08;3.30;;;2.20;;
71856;SDS011;63344;46.980;28.882;2023-05-16T09:32:39;4.70;;;2.20;;
71856;SDS011;63344;46.980;28.882;2023-05-16T09:35:10;6.47;;;3.38;;
71856;SDS011;63344;46.980;28.882;2023-05-16T09:38:20;2.83;;;2.35;;
71856;SDS011;63344;46.980;28.882;2023-05-16T09:40:47;5.25;;;2.25;;
71856;SDS011;63344;46.980;28.882;2023-05-16T09:43:16;2.42;;;2.20;;
71856;SDS011;63344;46.980;28.882;2023-05-16T09:45:46;3.95;;;2.10;;
71856;SDS011;63344;46.980;28.882;2023-05-16T09:48:16;5.80;;;2.35;;
71856;SDS011;63344;46.980;28.882;2023-05-16T09:50:48;2.88;;;2.40;;
71856;SDS011;63344;46.980;28.882;2023-05-16T09:53:38;3.33;;;2.15;;
71856;SDS011;63344;46.980;28.882;2023-05-16T09:56:10;3.85;;;2.10;;
71856;SDS011;63344;46.980;28.882;2023-05-16T09:58:42;3.33;;;2.08;;
71856;SDS011;63344;46.980;28.882;2023-05-16T10:01:11;5.20;;;2.75;;
71856;SDS011;63344;46.980;28.882;2023-05-16T10:03:39;3.17;;;2.30;;
71856;SDS011;63344;46.980;28.882;2023-05-16T10:06:08;3.00;;;2.25;;
71856;SDS011;63344;46.980;28.882;2023-05-16T10:08:40;3.92;;;1.92;;
71856;SDS011;63344;46.980;28.882;2023-05-16T10:11:08;5.45;;;2.40;;
71856;SDS011;63344;46.980;28.882;2023-05-16T10:13:37;3.83;;;1.95;;
71856;SDS011;63344;46.980;28.882;2023-05-16T10:16:06;4.13;;;2.08;;
71856;SDS011;63344;46.980;28.882;2023-05-16T10:18:38;1.75;;;1.52;;
71856;SDS011;63344;46.980;28.882;2023-05-16T10:21:07;4.38;;;1.92;;
71856;SDS011;63344;46.980;28.882;2023-05-16T10:23:42;2.47;;;1.92;;
71856;SDS011;63344;46.980;28.882;2023-05-16T10:26:15;3.25;;;2.00;;
71856;SDS011;63344;46.980;28.882;2023-05-16T10:28:45;2.85;;;2.45;;
71856;SDS011;63344;46.980;28.882;2023-05-16T10:31:14;3.25;;;2.40;;
71856;SDS011;63344;46.980;28.882;2023-05-16T10:33:41;3.47;;;2.40;;
71856;SDS011;63344;46.980;28.882;2023-05-16T10:36:09;5.40;;;2.95;;
71856;SDS011;63344;46.980;28.882;2023-05-16T10:38:38;9.55;;;2.75;;
71856;SDS011;63344;46.980;28.882;2023-05-16T10:41:09;4.43;;;2.10;;
71856;SDS011;63344;46.980;28.882;2023-05-16T10:43:41;5.05;;;2.65;;
71856;SDS011;63344;46.980;28.882;2023-05-16T10:46:10;6.85;;;2.80;;
71856;SDS011;63344;46.980;28.882;2023-05-16T10:48:39;2.92;;;1.98;;
71856;SDS011;63344;46.980;28.882;2023-05-16T10:54:11;4.03;;;2.35;;
71856;SDS011;63344;46.980;28.882;2023-05-16T10:56:41;3.35;;;2.20;;
71856;SDS011;63344;46.980;28.882;2023-05-16T10:59:24;4.57;;;3.00;;
71856;SDS011;63344;46.980;28.882;2023-05-16T11:01:57;3.17;;;2.30;;
71856;SDS011;63344;46.980;28.882;2023-05-16T11:07:16;4.03;;;2.53;;
71856;SDS011;63344;46.980;28.882;2023-05-16T11:10:08;3.22;;;2.05;;
71856;SDS011;63344;46.980;28.882;2023-05-16T11:12:47;5.55;;;2.40;;
71856;SDS011;63344;46.980;28.882;2023-05-16T11:17:47;3.55;;;2.10;;
71856;SDS011;63344;46.980;28.882;2023-05-16T11:20:31;3.97;;;2.03;;
71856;SDS011;63344;46.980;28.882;2023-05-16T11:23:22;4.05;;;2.70;;
71856;SDS011;63344;46.980;28.882;2023-05-16T11:25:51;14.50;;;7.07;;
71856;SDS011;63344;46.980;28.882;2023-05-16T11:28:20;13.35;;;6.32;;
71856;SDS011;63344;46.980;28.882;2023-05-16T11:30:51;6.07;;;3.45;;
71856;SDS011;63344;46.980;28.882;2023-05-16T11:33:23;5.57;;;2.72;;
71856;SDS011;63344;46.980;28.882;2023-05-16T11:36:01;7.53;;;3.38;;
71856;SDS011;63344;46.980;28.882;2023-05-16T11:38:41;4.43;;;2.75;;
71856;SDS011;63344;46.980;28.882;2023-05-16T11:41:10;9.38;;;2.47;;
71856;SDS011;63344;46.980;28.882;2023-05-16T11:43:44;6.10;;;3.17;;
71856;SDS011;63344;46.980;28.882;2023-05-16T11:46:12;5.55;;;2.97;;
71856;SDS011;63344;46.980;28.882;2023-05-16T11:48:45;3.67;;;2.30;;
71856;SDS011;63344;46.980;28.882;2023-05-16T11:51:15;3.95;;;1.73;;
71856;SDS011;63344;46.980;28.882;2023-05-16T11:53:46;5.85;;;2.55;;
71856;SDS011;63344;46.980;28.882;2023-05-16T11:56:19;6.35;;;2.35;;
71856;SDS011;63344;46.980;28.882;2023-05-16T11:58:48;4.05;;;2.38;;
71856;SDS011;63344;46.980;28.882;2023-05-16T12:01:16;4.82;;;2.17;;
71856;SDS011;63344;46.980;28.882;2023-05-16T12:03:52;6.38;;;3.20;;
71856;SDS011;63344;46.980;28.882;2023-05-16T12:06:21;6.47;;;3.33;;
71856;SDS011;63344;46.980;28.882;2023-05-16T12:08:48;9.07;;;2.72;;
71856;SDS011;63344;46.980;28.882;2023-05-16T12:11:17;4.55;;;1.95;;
71856;SDS011;63344;46.980;28.882;2023-05-16T12:13:45;6.40;;;2.38;;
71856;SDS011;63344;46.980;28.882;2023-05-16T12:16:12;4.93;;;2.00;;
71856;SDS011;63344;46.980;28.882;2023-05-16T12:18:40;4.22;;;2.75;;
71856;SDS011;63344;46.980;28.882;2023-05-16T12:21:09;3.95;;;2.42;;
71856;SDS011;63344;46.980;28.882;2023-05-16T12:23:37;8.80;;;2.40;;
71856;SDS011;63344;46.980;28.882;2023-05-16T12:26:05;7.40;;;2.35;;
71856;SDS011;63344;46.980;28.882;2023-05-16T12:28:34;7.75;;;2.08;;
71856;SDS011;63344;46.980;28.882;2023-05-16T12:33:29;4.35;;;2.03;;
71856;SDS011;63344;46.980;28.882;2023-05-16T12:35:57;4.35;;;2.42;;
71856;SDS011;63344;46.980;28.882;2023-05-16T12:38:27;5.43;;;2.40;;
71856;SDS011;63344;46.980;28.882;2023-05-16T12:40:58;3.60;;;2.38;;
71856;SDS011;63344;46.980;28.882;2023-05-16T12:43:25;5.75;;;2.13;;
71856;SDS011;63344;46.980;28.882;2023-05-16T12:45:55;5.97;;;2.58;;
71856;SDS011;63344;46.980;28.882;2023-05-16T12:48:28;2.95;;;2.03;;
71856;SDS011;63344;46.980;28.882;2023-05-16T12:51:17;2.95;;;2.33;;
71856;SDS011;63344;46.980;28.882;2023-05-16T12:53:47;2.53;;;1.60;;
71856;SDS011;63344;46.980;28.882;2023-05-16T12:56:31;3.15;;;1.83;;
71856;SDS011;63344;46.980;28.882;2023-05-16T12:58:59;4.25;;;2.35;;
71856;SDS011;63344;46.980;28.882;2023-05-16T13:01:26;5.80;;;2.22;;
71856;SDS011;63344;46.980;28.882;2023-05-16T13:03:54;4.28;;;2.33;;
71856;SDS011;63344;46.980;28.882;2023-05-16T13:06:22;3.85;;;1.83;;
71856;SDS011;63344;46.980;28.882;2023-05-16T13:08:49;3.95;;;2.08;;
71856;SDS011;63344;46.980;28.882;2023-05-16T13:11:18;4.47;;;2.00;;
71856;SDS011;63344;46.980;28.882;2023-05-16T13:13:46;3.42;;;1.58;;
71856;SDS011;63344;46.980;28.882;2023-05-16T13:16:14;5.63;;;2.30;;
71856;SDS011;63344;46.980;28.882;2023-05-16T13:18:42;3.65;;;2.13;;
71856;SDS011;63344;46.980;28.882;2023-05-16T13:21:12;8.70;;;2.42;;
71856;SDS011;63344;46.980;28.882;2023-05-16T13:23:49;5.03;;;2.00;;
71856;SDS011;63344;46.980;28.882;2023-05-16T13:26:16;5.35;;;2.33;;
71856;SDS011;63344;46.980;28.882;2023-05-16T13:28:43;2.88;;;1.92;;
71856;SDS011;63344;46.980;28.882;2023-05-16T13:31:11;6.18;;;2.45;;
71856;SDS011;63344;46.980;28.882;2023-05-16T13:33:38;4.25;;;2.00;;
71856;SDS011;63344;46.980;28.882;2023-05-16T13:36:08;7.18;;;2.20;;
71856;SDS011;63344;46.980;28.882;2023-05-16T13:38:42;5.05;;;2.05;;
71856;SDS011;63344;46.980;28.882;2023-05-16T13:47:38;5.50;;;1.83;;
71856;SDS011;63344;46.980;28.882;2023-05-16T13:50:06;2.60;;;1.85;;
71856;SDS011;63344;46.980;28.882;2023-05-16T13:52:35;5.43;;;1.85;;
71856;SDS011;63344;46.980;28.882;2023-05-16T13:55:04;5.65;;;1.88;;
71856;SDS011;63344;46.980;28.882;2023-05-16T13:57:32;2.20;;;1.42;;
71856;SDS011;63344;46.980;28.882;2023-05-16T14:00:01;5.25;;;1.50;;
71856;SDS011;63344;46.980;28.882;2023-05-16T14:02:41;4.13;;;1.77;;
71856;SDS011;63344;46.980;28.882;2023-05-16T14:05:12;8.15;;;2.58;;
71856;SDS011;63344;46.980;28.882;2023-05-16T14:07:40;3.00;;;1.40;;
71856;SDS011;63344;46.980;28.882;2023-05-16T14:10:09;4.25;;;1.75;;
71856;SDS011;63344;46.980;28.882;2023-05-16T14:12:37;4.70;;;1.90;;
71856;SDS011;63344;46.980;28.882;2023-05-16T14:15:05;3.92;;;1.75;;
71856;SDS011;63344;46.980;28.882;2023-05-16T14:17:33;2.97;;;1.63;;
71856;SDS011;63344;46.980;28.882;2023-05-16T14:20:00;1.75;;;0.93;;
71856;SDS011;63344;46.980;28.882;2023-05-16T14:22:28;5.57;;;1.77;;
71856;SDS011;63344;46.980;28.882;2023-05-16T14:27:24;3.17;;;1.55;;
71856;SDS011;63344;46.980;28.882;2023-05-16T14:29:52;2.13;;;1.23;;
71856;SDS011;63344;46.980;28.882;2023-05-16T14:32:20;3.92;;;1.83;;
71856;SDS011;63344;46.980;28.882;2023-05-16T14:34:48;3.92;;;1.88;;
71856;SDS011;63344;46.980;28.882;2023-05-16T14:37:16;2.83;;;1.65;;
71856;SDS011;63344;46.980;28.882;2023-05-16T14:39:45;1.73;;;1.05;;
71856;SDS011;63344;46.980;28.882;2023-05-16T14:42:13;3.30;;;1.65;;
71856;SDS011;63344;46.980;28.882;2023-05-16T14:44:41;5.78;;;1.38;;
71856;SDS011;63344;46.980;28.882;2023-05-16T14:47:08;10.25;;;2.17;;
71856;SDS011;63344;46.980;28.882;2023-05-16T14:49:36;2.92;;;1.65;;
71856;SDS011;63344;46.980;28.882;2023-05-16T14:52:04;7.57;;;2.35;;
71856;SDS011;63344;46.980;28.882;2023-05-16T14:54:33;2.40;;;1.92;;
71856;SDS011;63344;46.980;28.882;2023-05-16T14:57:06;5.22;;;2.08;;
71856;SDS011;63344;46.980;28.882;2023-05-16T14:59:34;3.30;;;1.92;;
71856;SDS011;63344;46.980;28.882;2023-05-16T15:02:01;4.72;;;2.30;;
71856;SDS011;63344;46.980;28.882;2023-05-16T15:04:29;3.65;;;1.90;;
71856;SDS011;63344;46.980;28.882;2023-05-16T15:06:56;3.80;;;1.80;;
71856;SDS011;63344;46.980;28.882;2023-05-16T15:09:24;5.00;;;1.48;;
71856;SDS011;63344;46.980;28.882;2023-05-16T15:11:51;4.65;;;2.20;;
71856;SDS011;63344;46.980;28.882;2023-05-16T15:14:19;3.83;;;1.90;;
71856;SDS011;63344;46.980;28.882;2023-05-16T15:16:47;6.13;;;2.50;;
71856;SDS011;63344;46.980;28.882;2023-05-16T15:19:15;7.65;;;3.47;;
71856;SDS011;63344;46.980;28.882;2023-05-16T15:21:42;6.88;;;2.97;;
71856;SDS011;63344;46.980;28.882;2023-05-16T15:24:10;5.03;;;3.10;;
71856;SDS011;63344;46.980;28.882;2023-05-16T15:26:39;5.72;;;3.20;;
71856;SDS011;63344;46.980;28.882;2023-05-16T15:29:07;6.55;;;2.42;;
71856;SDS011;63344;46.980;28.882;2023-05-16T15:31:34;5.82;;;2.22;;
71856;SDS011;63344;46.980;28.882;2023-05-16T15:34:02;3.60;;;1.65;;